This is the latest recevied weather packets stored in our database for station/object SP9TKN-1. If no packets are shown the sender has not sent any weather packets the latest 10 day(s).
| Time | Temp. | Humidity | Pressure | Rain* | Wind** | Luminosity | Snow |
|---|---|---|---|---|---|---|---|
| 1777656664 | 17.22° C | 33% | 1024.7 hPa | - | - | - | - |
| 1777654865 | 17.22° C | 32% | 1024.6 hPa | - | - | - | - |
| 1777653965 | 17.78° C | 32% | 1024.6 hPa | - | - | - | - |
| 1777653063 | 17.78° C | 32% | 1024.6 hPa | - | - | - | - |
| 1777651263 | 18.33° C | 31% | 1024.6 hPa | - | - | - | - |
| 1777649465 | 18.33° C | 31% | 1024.7 hPa | - | - | - | - |
| 1777647667 | 18.89° C | 30% | 1024.9 hPa | - | - | - | - |
| 1777646765 | 18.89° C | 30% | 1025.1 hPa | - | - | - | - |
| 1777645863 | 18.89° C | 29% | 1025.1 hPa | - | - | - | - |
| 1777644962 | 18.89° C | 29% | 1025.2 hPa | - | - | - | - |
| 1777644064 | 19.44° C | 29% | 1025.1 hPa | - | - | - | - |
| 1777643164 | 19.44° C | 29% | 1025.4 hPa | - | - | - | - |
| 1777642264 | 19.44° C | 29% | 1025.4 hPa | - | - | - | - |
| 1777641364 | 18.89° C | 29% | 1025.5 hPa | - | - | - | - |
| 1777640464 | 18.33° C | 30% | 1025.6 hPa | - | - | - | - |
| 1777639563 | 18.33° C | 31% | 1025.8 hPa | - | - | - | - |
| 1777635962 | 18.89° C | 29% | 1026.3 hPa | - | - | - | - |
| 1777635064 | 18.33° C | 30% | 1026.4 hPa | - | - | - | - |
| 1777634165 | 17.78° C | 30% | 1026.4 hPa | - | - | - | - |
| 1777633263 | 17.78° C | 28% | 1026.6 hPa | - | - | - | - |
| 1777632363 | 17.78° C | 29% | 1026.6 hPa | - | - | - | - |
| 1777631463 | 17.22° C | 30% | 1026.7 hPa | - | - | - | - |
| 1777630563 | 16.67° C | 31% | 1026.8 hPa | - | - | - | - |
| 1777626061 | 15° C | 36% | 1027.6 hPa | - | - | - | - |
| 1777624262 | 13.89° C | 40% | 1027.7 hPa | - | - | - | - |
* Rain since midnight (hover to see other rain measurements)
** Current wind speed in m/s (hover to see current wind gust speed)